sensor_id;sensor_type;location;lat;lon;timestamp;temperature;humidity
5848;DHT22;8756;49.29324300;8.70599800;2022-08-19T00:01:55;22.40;99.90
5848;DHT22;8756;49.29324300;8.70599800;2022-08-19T00:04:26;22.40;99.90
5848;DHT22;8756;49.29324300;8.70599800;2022-08-19T00:06:52;22.40;99.90
5848;DHT22;8756;49.29324300;8.70599800;2022-08-19T00:09:20;22.40;99.90
5848;DHT22;8756;49.29324300;8.70599800;2022-08-19T00:11:46;22.40;99.90
5848;DHT22;8756;49.29324300;8.70599800;2022-08-19T00:14:14;22.30;99.90
5848;DHT22;8756;49.29324300;8.70599800;2022-08-19T00:16:43;22.30;99.90
5848;DHT22;8756;49.29324300;8.70599800;2022-08-19T00:19:09;22.30;99.90
5848;DHT22;8756;49.29324300;8.70599800;2022-08-19T00:21:35;22.30;99.90
5848;DHT22;8756;49.29324300;8.70599800;2022-08-19T00:24:08;22.30;99.90
5848;DHT22;8756;49.29324300;8.70599800;2022-08-19T00:26:34;22.30;99.90
5848;DHT22;8756;49.29324300;8.70599800;2022-08-19T00:29:01;22.20;99.90
5848;DHT22;8756;49.29324300;8.70599800;2022-08-19T00:31:27;22.20;99.90
5848;DHT22;8756;49.29324300;8.70599800;2022-08-19T00:33:54;22.20;99.90
5848;DHT22;8756;49.29324300;8.70599800;2022-08-19T00:36:19;22.20;99.90
5848;DHT22;8756;49.29324300;8.70599800;2022-08-19T00:38:45;22.20;99.90
5848;DHT22;8756;49.29324300;8.70599800;2022-08-19T00:41:16;22.20;99.90
5848;DHT22;8756;49.29324300;8.70599800;2022-08-19T00:46:29;22.20;99.90
5848;DHT22;8756;49.29324300;8.70599800;2022-08-19T00:48:56;22.20;99.90
5848;DHT22;8756;49.29324300;8.70599800;2022-08-19T00:51:24;22.20;99.90
5848;DHT22;8756;49.29324300;8.70599800;2022-08-19T00:53:52;22.20;99.90
5848;DHT22;8756;49.29324300;8.70599800;2022-08-19T00:56:19;22.10;99.90
5848;DHT22;8756;49.29324300;8.70599800;2022-08-19T00:58:45;22.10;99.90
5848;DHT22;8756;49.29324300;8.70599800;2022-08-19T01:01:10;22.10;99.90
5848;DHT22;8756;49.29324300;8.70599800;2022-08-19T01:03:36;22.10;99.90
5848;DHT22;8756;49.29324300;8.70599800;2022-08-19T01:06:02;22.10;99.90
5848;DHT22;8756;49.29324300;8.70599800;2022-08-19T01:08:28;22.00;99.90
5848;DHT22;8756;49.29324300;8.70599800;2022-08-19T01:10:56;22.00;99.90
5848;DHT22;8756;49.29324300;8.70599800;2022-08-19T01:13:27;22.00;99.90
5848;DHT22;8756;49.29324300;8.70599800;2022-08-19T01:15:57;22.00;99.90
5848;DHT22;8756;49.29324300;8.70599800;2022-08-19T01:18:23;22.00;99.90
5848;DHT22;8756;49.29324300;8.70599800;2022-08-19T01:20:50;22.00;99.90
5848;DHT22;8756;49.29324300;8.70599800;2022-08-19T01:23:17;21.90;99.90
5848;DHT22;8756;49.29324300;8.70599800;2022-08-19T01:25:52;21.90;99.90
5848;DHT22;8756;49.29324300;8.70599800;2022-08-19T01:28:21;21.90;99.90
5848;DHT22;8756;49.29324300;8.70599800;2022-08-19T01:30:47;21.90;99.90
5848;DHT22;8756;49.29324300;8.70599800;2022-08-19T01:33:14;21.90;99.90
5848;DHT22;8756;49.29324300;8.70599800;2022-08-19T01:35:40;21.90;99.90
5848;DHT22;8756;49.29324300;8.70599800;2022-08-19T01:38:10;21.80;99.90
5848;DHT22;8756;49.29324300;8.70599800;2022-08-19T01:40:38;21.80;99.90
5848;DHT22;8756;49.29324300;8.70599800;2022-08-19T01:43:04;21.80;99.90
5848;DHT22;8756;49.29324300;8.70599800;2022-08-19T01:45:32;21.80;99.90
5848;DHT22;8756;49.29324300;8.70599800;2022-08-19T01:47:58;21.80;99.90
5848;DHT22;8756;49.29324300;8.70599800;2022-08-19T01:50:25;21.70;99.90
5848;DHT22;8756;49.29324300;8.70599800;2022-08-19T01:52:51;21.70;99.90
5848;DHT22;8756;49.29324300;8.70599800;2022-08-19T01:55:20;21.80;99.90
5848;DHT22;8756;49.29324300;8.70599800;2022-08-19T01:57:53;21.70;99.90
5848;DHT22;8756;49.29324300;8.70599800;2022-08-19T02:00:23;21.70;99.90
5848;DHT22;8756;49.29324300;8.70599800;2022-08-19T02:02:49;21.70;99.90
5848;DHT22;8756;49.29324300;8.70599800;2022-08-19T02:05:15;21.70;99.90
5848;DHT22;8756;49.29324300;8.70599800;2022-08-19T02:07:43;21.70;99.90
5848;DHT22;8756;49.29324300;8.70599800;2022-08-19T02:10:14;21.70;99.90
5848;DHT22;8756;49.29324300;8.70599800;2022-08-19T02:12:40;21.70;99.90
5848;DHT22;8756;49.29324300;8.70599800;2022-08-19T02:15:06;21.70;99.90
5848;DHT22;8756;49.29324300;8.70599800;2022-08-19T02:17:32;21.70;99.90
5848;DHT22;8756;49.29324300;8.70599800;2022-08-19T02:19:58;21.70;99.90
5848;DHT22;8756;49.29324300;8.70599800;2022-08-19T02:22:24;21.70;99.90
5848;DHT22;8756;49.29324300;8.70599800;2022-08-19T02:24:53;21.70;99.90
5848;DHT22;8756;49.29324300;8.70599800;2022-08-19T02:27:19;21.70;99.90
5848;DHT22;8756;49.29324300;8.70599800;2022-08-19T02:29:49;21.70;99.90
5848;DHT22;8756;49.29324300;8.70599800;2022-08-19T02:32:16;21.70;99.90
5848;DHT22;8756;49.29324300;8.70599800;2022-08-19T02:34:44;21.70;99.90
5848;DHT22;8756;49.29324300;8.70599800;2022-08-19T02:37:09;21.70;99.90
5848;DHT22;8756;49.29324300;8.70599800;2022-08-19T02:39:55;21.70;99.90
5848;DHT22;8756;49.29324300;8.70599800;2022-08-19T02:42:20;21.60;99.90
5848;DHT22;8756;49.29324300;8.70599800;2022-08-19T02:44:46;21.60;99.90
5848;DHT22;8756;49.29324300;8.70599800;2022-08-19T02:47:12;21.60;99.90
5848;DHT22;8756;49.29324300;8.70599800;2022-08-19T02:49:39;21.60;99.90
5848;DHT22;8756;49.29324300;8.70599800;2022-08-19T02:52:05;21.60;99.90
5848;DHT22;8756;49.29324300;8.70599800;2022-08-19T02:54:31;21.60;99.90
5848;DHT22;8756;49.29324300;8.70599800;2022-08-19T02:56:56;21.60;99.90
5848;DHT22;8756;49.29324300;8.70599800;2022-08-19T02:59:22;21.60;99.90
5848;DHT22;8756;49.29324300;8.70599800;2022-08-19T03:01:47;21.60;99.90
5848;DHT22;8756;49.29324300;8.70599800;2022-08-19T03:04:14;21.60;99.90
5848;DHT22;8756;49.29324300;8.70599800;2022-08-19T03:06:43;21.50;99.90
5848;DHT22;8756;49.29324300;8.70599800;2022-08-19T03:09:10;21.50;99.90
5848;DHT22;8756;49.29324300;8.70599800;2022-08-19T03:11:36;21.50;99.90
5848;DHT22;8756;49.29324300;8.70599800;2022-08-19T03:14:03;21.50;99.90
5848;DHT22;8756;49.29324300;8.70599800;2022-08-19T03:16:31;21.50;99.90
5848;DHT22;8756;49.29324300;8.70599800;2022-08-19T03:18:58;21.50;99.90
5848;DHT22;8756;49.29324300;8.70599800;2022-08-19T03:21:28;21.50;99.90
5848;DHT22;8756;49.29324300;8.70599800;2022-08-19T03:23:55;21.40;99.90
5848;DHT22;8756;49.29324300;8.70599800;2022-08-19T03:26:21;21.30;99.90
5848;DHT22;8756;49.29324300;8.70599800;2022-08-19T03:28:47;21.20;99.90
5848;DHT22;8756;49.29324300;8.70599800;2022-08-19T03:31:17;21.20;99.90
5848;DHT22;8756;49.29324300;8.70599800;2022-08-19T03:33:44;21.10;99.90
5848;DHT22;8756;49.29324300;8.70599800;2022-08-19T03:36:16;21.10;99.90
5848;DHT22;8756;49.29324300;8.70599800;2022-08-19T03:38:48;21.10;99.90
5848;DHT22;8756;49.29324300;8.70599800;2022-08-19T03:41:20;21.20;99.90
5848;DHT22;8756;49.29324300;8.70599800;2022-08-19T03:43:46;21.20;99.90
5848;DHT22;8756;49.29324300;8.70599800;2022-08-19T03:46:15;21.20;99.90
5848;DHT22;8756;49.29324300;8.70599800;2022-08-19T03:48:42;21.20;99.90
5848;DHT22;8756;49.29324300;8.70599800;2022-08-19T03:51:17;21.20;99.90
5848;DHT22;8756;49.29324300;8.70599800;2022-08-19T03:53:43;21.20;99.90
5848;DHT22;8756;49.29324300;8.70599800;2022-08-19T03:56:09;21.20;99.90
5848;DHT22;8756;49.29324300;8.70599800;2022-08-19T03:58:36;21.20;99.90
5848;DHT22;8756;49.29324300;8.70599800;2022-08-19T04:01:07;21.20;99.90
5848;DHT22;8756;49.29324300;8.70599800;2022-08-19T04:03:33;21.20;99.90
5848;DHT22;8756;49.29324300;8.70599800;2022-08-19T04:06:13;21.20;99.90
5848;DHT22;8756;49.29324300;8.70599800;2022-08-19T04:08:43;21.20;99.90
5848;DHT22;8756;49.29324300;8.70599800;2022-08-19T04:11:11;21.20;99.90
5848;DHT22;8756;49.29324300;8.70599800;2022-08-19T04:13:37;21.20;99.90
5848;DHT22;8756;49.29324300;8.70599800;2022-08-19T04:16:04;21.20;99.90
5848;DHT22;8756;49.29324300;8.70599800;2022-08-19T04:18:31;21.20;99.90
5848;DHT22;8756;49.29324300;8.70599800;2022-08-19T04:20:58;21.20;99.90
5848;DHT22;8756;49.29324300;8.70599800;2022-08-19T04:23:23;21.20;99.90
5848;DHT22;8756;49.29324300;8.70599800;2022-08-19T04:25:49;21.20;99.90
5848;DHT22;8756;49.29324300;8.70599800;2022-08-19T04:28:15;21.10;99.90
5848;DHT22;8756;49.29324300;8.70599800;2022-08-19T04:30:46;21.10;99.90
5848;DHT22;8756;49.29324300;8.70599800;2022-08-19T04:33:14;21.10;99.90
5848;DHT22;8756;49.29324300;8.70599800;2022-08-19T04:35:44;21.10;99.90
5848;DHT22;8756;49.29324300;8.70599800;2022-08-19T04:38:11;21.10;99.90
5848;DHT22;8756;49.29324300;8.70599800;2022-08-19T04:40:45;21.10;99.90
5848;DHT22;8756;49.29324300;8.70599800;2022-08-19T04:43:30;21.10;99.90
5848;DHT22;8756;49.29324300;8.70599800;2022-08-19T04:45:56;21.10;99.90
5848;DHT22;8756;49.29324300;8.70599800;2022-08-19T04:48:23;21.10;99.90
5848;DHT22;8756;49.29324300;8.70599800;2022-08-19T04:50:53;21.10;99.90
5848;DHT22;8756;49.29324300;8.70599800;2022-08-19T04:53:24;21.10;99.90
5848;DHT22;8756;49.29324300;8.70599800;2022-08-19T04:55:50;21.00;99.90
5848;DHT22;8756;49.29324300;8.70599800;2022-08-19T04:58:17;21.00;99.90
5848;DHT22;8756;49.29324300;8.70599800;2022-08-19T05:00:42;21.00;99.90
5848;DHT22;8756;49.29324300;8.70599800;2022-08-19T05:03:09;21.00;99.90
5848;DHT22;8756;49.29324300;8.70599800;2022-08-19T05:05:41;21.00;99.90
5848;DHT22;8756;49.29324300;8.70599800;2022-08-19T05:08:06;21.00;99.90
5848;DHT22;8756;49.29324300;8.70599800;2022-08-19T05:10:35;21.00;99.90
5848;DHT22;8756;49.29324300;8.70599800;2022-08-19T05:13:02;21.00;99.90
5848;DHT22;8756;49.29324300;8.70599800;2022-08-19T05:15:28;21.00;99.90
5848;DHT22;8756;49.29324300;8.70599800;2022-08-19T05:17:54;21.00;99.90
5848;DHT22;8756;49.29324300;8.70599800;2022-08-19T05:20:38;21.00;99.90
5848;DHT22;8756;49.29324300;8.70599800;2022-08-19T05:23:23;21.00;99.90
5848;DHT22;8756;49.29324300;8.70599800;2022-08-19T05:25:49;21.00;99.90
5848;DHT22;8756;49.29324300;8.70599800;2022-08-19T05:28:15;21.00;99.90
5848;DHT22;8756;49.29324300;8.70599800;2022-08-19T05:30:41;21.00;99.90
5848;DHT22;8756;49.29324300;8.70599800;2022-08-19T05:33:10;21.00;99.90
5848;DHT22;8756;49.29324300;8.70599800;2022-08-19T05:35:38;21.00;99.90
5848;DHT22;8756;49.29324300;8.70599800;2022-08-19T05:38:05;21.00;99.90
5848;DHT22;8756;49.29324300;8.70599800;2022-08-19T05:40:34;21.00;99.90
5848;DHT22;8756;49.29324300;8.70599800;2022-08-19T05:43:02;21.00;99.90
5848;DHT22;8756;49.29324300;8.70599800;2022-08-19T05:45:28;21.00;99.90
5848;DHT22;8756;49.29324300;8.70599800;2022-08-19T05:47:53;21.00;99.90
5848;DHT22;8756;49.29324300;8.70599800;2022-08-19T05:50:19;21.00;99.90
5848;DHT22;8756;49.29324300;8.70599800;2022-08-19T05:52:45;21.00;99.90
5848;DHT22;8756;49.29324300;8.70599800;2022-08-19T05:55:11;21.00;99.90
5848;DHT22;8756;49.29324300;8.70599800;2022-08-19T05:57:37;21.00;99.90
5848;DHT22;8756;49.29324300;8.70599800;2022-08-19T06:00:05;21.00;99.90
5848;DHT22;8756;49.29324300;8.70599800;2022-08-19T06:02:34;21.00;99.90
5848;DHT22;8756;49.29324300;8.70599800;2022-08-19T06:05:01;21.10;99.90
5848;DHT22;8756;49.29324300;8.70599800;2022-08-19T06:07:28;21.10;99.90
5848;DHT22;8756;49.29324300;8.70599800;2022-08-19T06:09:54;21.10;99.90
5848;DHT22;8756;49.29324300;8.70599800;2022-08-19T06:12:20;21.10;99.90
5848;DHT22;8756;49.29324300;8.70599800;2022-08-19T06:14:51;21.10;99.90
5848;DHT22;8756;49.29324300;8.70599800;2022-08-19T06:17:18;21.10;99.90
5848;DHT22;8756;49.29324300;8.70599800;2022-08-19T06:19:43;21.10;99.90
5848;DHT22;8756;49.29324300;8.70599800;2022-08-19T06:22:09;21.10;99.90
5848;DHT22;8756;49.29324300;8.70599800;2022-08-19T06:24:37;21.10;99.90
5848;DHT22;8756;49.29324300;8.70599800;2022-08-19T06:27:03;21.10;99.90
5848;DHT22;8756;49.29324300;8.70599800;2022-08-19T06:29:31;21.10;99.90
5848;DHT22;8756;49.29324300;8.70599800;2022-08-19T06:31:59;21.10;99.90
5848;DHT22;8756;49.29324300;8.70599800;2022-08-19T06:34:27;21.20;99.90
5848;DHT22;8756;49.29324300;8.70599800;2022-08-19T06:36:54;21.20;99.90
5848;DHT22;8756;49.29324300;8.70599800;2022-08-19T06:39:22;21.20;99.90
5848;DHT22;8756;49.29324300;8.70599800;2022-08-19T06:41:50;21.20;99.90
5848;DHT22;8756;49.29324300;8.70599800;2022-08-19T06:44:19;21.30;99.90
5848;DHT22;8756;49.29324300;8.70599800;2022-08-19T06:46:45;21.30;99.90
5848;DHT22;8756;49.29324300;8.70599800;2022-08-19T06:49:11;21.30;99.90
5848;DHT22;8756;49.29324300;8.70599800;2022-08-19T06:51:41;21.30;99.90
5848;DHT22;8756;49.29324300;8.70599800;2022-08-19T06:54:07;21.30;99.90
5848;DHT22;8756;49.29324300;8.70599800;2022-08-19T06:56:32;21.30;99.90
5848;DHT22;8756;49.29324300;8.70599800;2022-08-19T06:59:07;21.30;99.90
5848;DHT22;8756;49.29324300;8.70599800;2022-08-19T07:01:42;21.40;99.90
5848;DHT22;8756;49.29324300;8.70599800;2022-08-19T07:04:13;21.40;99.90
5848;DHT22;8756;49.29324300;8.70599800;2022-08-19T07:06:41;21.40;99.90
5848;DHT22;8756;49.29324300;8.70599800;2022-08-19T07:09:08;21.50;99.90
5848;DHT22;8756;49.29324300;8.70599800;2022-08-19T07:11:34;21.50;99.90
5848;DHT22;8756;49.29324300;8.70599800;2022-08-19T07:14:02;21.50;99.90
5848;DHT22;8756;49.29324300;8.70599800;2022-08-19T07:16:28;21.50;99.90
5848;DHT22;8756;49.29324300;8.70599800;2022-08-19T07:18:54;21.60;99.90
5848;DHT22;8756;49.29324300;8.70599800;2022-08-19T07:21:26;21.60;99.90
5848;DHT22;8756;49.29324300;8.70599800;2022-08-19T07:23:54;21.60;99.90
5848;DHT22;8756;49.29324300;8.70599800;2022-08-19T07:26:28;21.60;99.90
5848;DHT22;8756;49.29324300;8.70599800;2022-08-19T07:28:54;21.60;99.90
5848;DHT22;8756;49.29324300;8.70599800;2022-08-19T07:31:23;21.60;99.90
5848;DHT22;8756;49.29324300;8.70599800;2022-08-19T07:33:51;21.60;99.90
5848;DHT22;8756;49.29324300;8.70599800;2022-08-19T07:36:24;21.60;99.90
5848;DHT22;8756;49.29324300;8.70599800;2022-08-19T07:38:51;21.70;99.90
5848;DHT22;8756;49.29324300;8.70599800;2022-08-19T07:41:23;21.70;99.90
5848;DHT22;8756;49.29324300;8.70599800;2022-08-19T07:43:49;21.80;99.90
5848;DHT22;8756;49.29324300;8.70599800;2022-08-19T07:46:16;21.80;99.90
5848;DHT22;8756;49.29324300;8.70599800;2022-08-19T07:48:46;21.80;99.90
5848;DHT22;8756;49.29324300;8.70599800;2022-08-19T07:51:13;21.90;99.90
5848;DHT22;8756;49.29324300;8.70599800;2022-08-19T07:53:39;21.90;99.90
5848;DHT22;8756;49.29324300;8.70599800;2022-08-19T07:56:05;21.90;99.90
5848;DHT22;8756;49.29324300;8.70599800;2022-08-19T07:58:34;21.90;99.90
5848;DHT22;8756;49.29324300;8.70599800;2022-08-19T08:01:02;22.00;99.90
5848;DHT22;8756;49.29324300;8.70599800;2022-08-19T08:03:28;22.00;99.90
5848;DHT22;8756;49.29324300;8.70599800;2022-08-19T08:06:14;22.00;99.90
5848;DHT22;8756;49.29324300;8.70599800;2022-08-19T08:09:00;22.00;99.90
5848;DHT22;8756;49.29324300;8.70599800;2022-08-19T08:11:58;22.00;99.90
5848;DHT22;8756;49.29324300;8.70599800;2022-08-19T08:14:30;22.10;99.90
5848;DHT22;8756;49.29324300;8.70599800;2022-08-19T08:16:56;22.10;99.90
5848;DHT22;8756;49.29324300;8.70599800;2022-08-19T08:19:24;22.10;99.90
5848;DHT22;8756;49.29324300;8.70599800;2022-08-19T08:21:51;22.10;99.90
5848;DHT22;8756;49.29324300;8.70599800;2022-08-19T08:24:17;22.10;99.90
5848;DHT22;8756;49.29324300;8.70599800;2022-08-19T08:26:43;22.20;99.90
5848;DHT22;8756;49.29324300;8.70599800;2022-08-19T08:29:10;22.20;99.90
5848;DHT22;8756;49.29324300;8.70599800;2022-08-19T08:31:39;22.20;99.90
5848;DHT22;8756;49.29324300;8.70599800;2022-08-19T08:34:05;22.30;99.90
5848;DHT22;8756;49.29324300;8.70599800;2022-08-19T08:36:30;22.30;99.90
5848;DHT22;8756;49.29324300;8.70599800;2022-08-19T08:38:59;22.40;99.90
5848;DHT22;8756;49.29324300;8.70599800;2022-08-19T08:41:51;22.40;99.90
5848;DHT22;8756;49.29324300;8.70599800;2022-08-19T08:44:38;22.50;99.90
5848;DHT22;8756;49.29324300;8.70599800;2022-08-19T08:47:13;22.50;99.90
5848;DHT22;8756;49.29324300;8.70599800;2022-08-19T08:49:59;22.60;99.90
5848;DHT22;8756;49.29324300;8.70599800;2022-08-19T08:52:35;22.60;99.90
5848;DHT22;8756;49.29324300;8.70599800;2022-08-19T08:55:08;22.80;99.90
5848;DHT22;8756;49.29324300;8.70599800;2022-08-19T08:57:44;22.90;99.90
5848;DHT22;8756;49.29324300;8.70599800;2022-08-19T09:00:26;23.00;99.90
5848;DHT22;8756;49.29324300;8.70599800;2022-08-19T09:02:54;23.20;99.90
5848;DHT22;8756;49.29324300;8.70599800;2022-08-19T09:05:21;23.30;99.90
5848;DHT22;8756;49.29324300;8.70599800;2022-08-19T09:08:10;23.40;99.90
5848;DHT22;8756;49.29324300;8.70599800;2022-08-19T09:10:44;23.50;99.90
5848;DHT22;8756;49.29324300;8.70599800;2022-08-19T09:15:46;23.60;99.90
5848;DHT22;8756;49.29324300;8.70599800;2022-08-19T09:18:14;23.60;99.90
5848;DHT22;8756;49.29324300;8.70599800;2022-08-19T09:20:41;23.70;99.90
5848;DHT22;8756;49.29324300;8.70599800;2022-08-19T09:23:07;23.70;99.90
5848;DHT22;8756;49.29324300;8.70599800;2022-08-19T09:25:33;23.80;99.90
5848;DHT22;8756;49.29324300;8.70599800;2022-08-19T09:28:00;23.80;99.90
5848;DHT22;8756;49.29324300;8.70599800;2022-08-19T09:30:31;23.90;99.90
5848;DHT22;8756;49.29324300;8.70599800;2022-08-19T09:32:57;23.90;99.90
5848;DHT22;8756;49.29324300;8.70599800;2022-08-19T09:35:25;23.90;99.90
5848;DHT22;8756;49.29324300;8.70599800;2022-08-19T09:37:52;24.00;99.90
5848;DHT22;8756;49.29324300;8.70599800;2022-08-19T09:40:19;24.00;99.90
5848;DHT22;8756;49.29324300;8.70599800;2022-08-19T09:42:46;24.20;99.90
5848;DHT22;8756;49.29324300;8.70599800;2022-08-19T09:45:17;24.20;99.90
5848;DHT22;8756;49.29324300;8.70599800;2022-08-19T09:47:46;24.30;99.90
5848;DHT22;8756;49.29324300;8.70599800;2022-08-19T09:50:12;24.40;99.90
5848;DHT22;8756;49.29324300;8.70599800;2022-08-19T09:52:38;24.50;99.90
5848;DHT22;8756;49.29324300;8.70599800;2022-08-19T09:55:05;24.50;99.90
5848;DHT22;8756;49.29324300;8.70599800;2022-08-19T09:57:31;24.60;99.90
5848;DHT22;8756;49.29324300;8.70599800;2022-08-19T09:59:56;24.80;99.90
5848;DHT22;8756;49.29324300;8.70599800;2022-08-19T10:02:22;24.80;99.90
5848;DHT22;8756;49.29324300;8.70599800;2022-08-19T10:04:48;24.80;99.90
5848;DHT22;8756;49.29324300;8.70599800;2022-08-19T10:07:32;24.90;99.90
5848;DHT22;8756;49.29324300;8.70599800;2022-08-19T10:09:57;24.90;99.90
5848;DHT22;8756;49.29324300;8.70599800;2022-08-19T10:12:23;25.00;99.90
5848;DHT22;8756;49.29324300;8.70599800;2022-08-19T10:14:49;25.00;99.90
5848;DHT22;8756;49.29324300;8.70599800;2022-08-19T10:17:16;25.00;99.90
5848;DHT22;8756;49.29324300;8.70599800;2022-08-19T10:19:43;25.10;99.90
5848;DHT22;8756;49.29324300;8.70599800;2022-08-19T10:22:08;25.10;99.90
5848;DHT22;8756;49.29324300;8.70599800;2022-08-19T10:24:36;25.20;99.90
5848;DHT22;8756;49.29324300;8.70599800;2022-08-19T10:27:02;25.10;99.90
5848;DHT22;8756;49.29324300;8.70599800;2022-08-19T10:29:30;25.10;99.90
5848;DHT22;8756;49.29324300;8.70599800;2022-08-19T10:31:57;25.20;99.90
5848;DHT22;8756;49.29324300;8.70599800;2022-08-19T10:34:24;25.30;99.90
5848;DHT22;8756;49.29324300;8.70599800;2022-08-19T10:36:49;25.30;99.90
5848;DHT22;8756;49.29324300;8.70599800;2022-08-19T10:39:16;25.40;99.90
5848;DHT22;8756;49.29324300;8.70599800;2022-08-19T10:41:42;25.40;99.90
5848;DHT22;8756;49.29324300;8.70599800;2022-08-19T10:44:10;25.40;99.90
5848;DHT22;8756;49.29324300;8.70599800;2022-08-19T10:46:41;25.40;99.90
5848;DHT22;8756;49.29324300;8.70599800;2022-08-19T10:49:09;25.40;99.90
5848;DHT22;8756;49.29324300;8.70599800;2022-08-19T10:51:35;25.50;99.90
5848;DHT22;8756;49.29324300;8.70599800;2022-08-19T10:54:20;25.50;99.90
5848;DHT22;8756;49.29324300;8.70599800;2022-08-19T10:56:45;25.50;99.90
5848;DHT22;8756;49.29324300;8.70599800;2022-08-19T10:59:26;25.60;99.90
5848;DHT22;8756;49.29324300;8.70599800;2022-08-19T11:01:53;25.60;99.90
5848;DHT22;8756;49.29324300;8.70599800;2022-08-19T11:04:20;25.60;99.90
5848;DHT22;8756;49.29324300;8.70599800;2022-08-19T11:06:48;25.60;99.90
5848;DHT22;8756;49.29324300;8.70599800;2022-08-19T11:09:22;25.50;99.90
5848;DHT22;8756;49.29324300;8.70599800;2022-08-19T11:11:55;25.50;99.90
5848;DHT22;8756;49.29324300;8.70599800;2022-08-19T11:14:22;25.60;99.90
5848;DHT22;8756;49.29324300;8.70599800;2022-08-19T11:16:51;25.70;99.90
5848;DHT22;8756;49.29324300;8.70599800;2022-08-19T11:19:21;25.80;99.90
5848;DHT22;8756;49.29324300;8.70599800;2022-08-19T11:21:49;25.80;99.90
5848;DHT22;8756;49.29324300;8.70599800;2022-08-19T11:24:19;25.80;99.90
5848;DHT22;8756;49.29324300;8.70599800;2022-08-19T11:26:47;25.90;99.90
5848;DHT22;8756;49.29324300;8.70599800;2022-08-19T11:29:14;25.90;99.90
5848;DHT22;8756;49.29324300;8.70599800;2022-08-19T11:31:43;25.90;99.90
5848;DHT22;8756;49.29324300;8.70599800;2022-08-19T11:34:13;26.00;99.90
5848;DHT22;8756;49.29324300;8.70599800;2022-08-19T11:36:41;26.00;99.90
5848;DHT22;8756;49.29324300;8.70599800;2022-08-19T11:39:09;26.10;99.90
5848;DHT22;8756;49.29324300;8.70599800;2022-08-19T11:41:35;26.10;99.90
5848;DHT22;8756;49.29324300;8.70599800;2022-08-19T11:44:01;26.20;99.90
5848;DHT22;8756;49.29324300;8.70599800;2022-08-19T11:46:28;26.30;99.90
5848;DHT22;8756;49.29324300;8.70599800;2022-08-19T11:48:55;26.40;99.90
5848;DHT22;8756;49.29324300;8.70599800;2022-08-19T11:51:23;26.30;99.90
5848;DHT22;8756;49.29324300;8.70599800;2022-08-19T11:53:50;26.30;99.90
5848;DHT22;8756;49.29324300;8.70599800;2022-08-19T11:56:16;26.20;99.90
5848;DHT22;8756;49.29324300;8.70599800;2022-08-19T11:58:42;26.10;99.90
5848;DHT22;8756;49.29324300;8.70599800;2022-08-19T12:01:09;26.00;99.90
5848;DHT22;8756;49.29324300;8.70599800;2022-08-19T12:03:36;25.90;99.90
5848;DHT22;8756;49.29324300;8.70599800;2022-08-19T12:06:06;25.90;99.90
5848;DHT22;8756;49.29324300;8.70599800;2022-08-19T12:08:32;25.90;99.90
5848;DHT22;8756;49.29324300;8.70599800;2022-08-19T12:10:58;26.00;99.90
5848;DHT22;8756;49.29324300;8.70599800;2022-08-19T12:13:27;26.00;99.90
5848;DHT22;8756;49.29324300;8.70599800;2022-08-19T12:15:53;26.00;99.90
5848;DHT22;8756;49.29324300;8.70599800;2022-08-19T12:18:19;26.20;99.90
5848;DHT22;8756;49.29324300;8.70599800;2022-08-19T12:20:45;26.10;99.90
5848;DHT22;8756;49.29324300;8.70599800;2022-08-19T12:23:11;26.10;99.90
5848;DHT22;8756;49.29324300;8.70599800;2022-08-19T12:25:44;26.10;99.90
5848;DHT22;8756;49.29324300;8.70599800;2022-08-19T12:28:18;26.00;99.90
5848;DHT22;8756;49.29324300;8.70599800;2022-08-19T12:30:44;25.90;99.90
5848;DHT22;8756;49.29324300;8.70599800;2022-08-19T12:33:10;25.90;99.90
5848;DHT22;8756;49.29324300;8.70599800;2022-08-19T12:35:40;25.80;99.90
5848;DHT22;8756;49.29324300;8.70599800;2022-08-19T12:38:07;25.90;99.90
5848;DHT22;8756;49.29324300;8.70599800;2022-08-19T12:40:32;25.90;99.90
5848;DHT22;8756;49.29324300;8.70599800;2022-08-19T12:42:58;25.90;99.90
5848;DHT22;8756;49.29324300;8.70599800;2022-08-19T12:45:24;26.00;99.40
5848;DHT22;8756;49.29324300;8.70599800;2022-08-19T12:47:50;26.00;99.60
5848;DHT22;8756;49.29324300;8.70599800;2022-08-19T12:50:17;26.00;99.60
5848;DHT22;8756;49.29324300;8.70599800;2022-08-19T12:52:42;26.00;99.70
5848;DHT22;8756;49.29324300;8.70599800;2022-08-19T12:55:08;26.00;99.90
5848;DHT22;8756;49.29324300;8.70599800;2022-08-19T12:57:35;26.00;99.90
5848;DHT22;8756;49.29324300;8.70599800;2022-08-19T13:00:09;26.10;99.90
5848;DHT22;8756;49.29324300;8.70599800;2022-08-19T13:02:40;26.20;99.70
5848;DHT22;8756;49.29324300;8.70599800;2022-08-19T13:05:08;26.40;99.40
5848;DHT22;8756;49.29324300;8.70599800;2022-08-19T13:07:37;26.50;99.90
5848;DHT22;8756;49.29324300;8.70599800;2022-08-19T13:10:05;26.70;99.10
5848;DHT22;8756;49.29324300;8.70599800;2022-08-19T13:12:30;26.80;97.90
5848;DHT22;8756;49.29324300;8.70599800;2022-08-19T13:14:56;26.90;97.40
5848;DHT22;8756;49.29324300;8.70599800;2022-08-19T13:17:22;26.90;97.00
5848;DHT22;8756;49.29324300;8.70599800;2022-08-19T13:19:48;27.00;96.30
5848;DHT22;8756;49.29324300;8.70599800;2022-08-19T13:22:14;27.00;96.00
5848;DHT22;8756;49.29324300;8.70599800;2022-08-19T13:24:39;27.00;95.20
5848;DHT22;8756;49.29324300;8.70599800;2022-08-19T13:27:05;27.00;94.90
5848;DHT22;8756;49.29324300;8.70599800;2022-08-19T13:29:32;27.00;95.00
5848;DHT22;8756;49.29324300;8.70599800;2022-08-19T13:32:16;27.00;95.40
5848;DHT22;8756;49.29324300;8.70599800;2022-08-19T13:35:01;27.10;96.10
5848;DHT22;8756;49.29324300;8.70599800;2022-08-19T13:37:27;27.10;95.60
5848;DHT22;8756;49.29324300;8.70599800;2022-08-19T13:40:17;27.20;96.00
5848;DHT22;8756;49.29324300;8.70599800;2022-08-19T13:42:45;27.30;95.60
5848;DHT22;8756;49.29324300;8.70599800;2022-08-19T13:45:13;27.30;94.60
5848;DHT22;8756;49.29324300;8.70599800;2022-08-19T13:47:40;27.40;94.50
5848;DHT22;8756;49.29324300;8.70599800;2022-08-19T13:50:15;27.30;94.10
5848;DHT22;8756;49.29324300;8.70599800;2022-08-19T13:52:41;27.40;94.30
5848;DHT22;8756;49.29324300;8.70599800;2022-08-19T13:55:09;27.40;93.70
5848;DHT22;8756;49.29324300;8.70599800;2022-08-19T13:57:35;27.40;92.70
5848;DHT22;8756;49.29324300;8.70599800;2022-08-19T14:00:16;27.40;91.60